Time;durP1;ratioP1;P1;durP2;ratioP2;P2;SDS_P1;SDS_P2;PMS_P1;PMS_P2;Temp;Humidity;BMP_temperature;BMP_pressure;BME280_temperature;BME280_humidity;BME280_pressure;Samples;Min_cycle;Max_cycle;Signal;HPM_P1;HPM_P2
2022/09/05 00:02:32;;;;;;;9.00;8.10;;;18.60;99.90;;;;;;5033476;28;20255;-68
2022/09/05 00:05:40;;;;;;;11.52;8.85;;;18.70;99.90;;;;;;5057769;28;20669;-69
2022/09/05 00:09:14;;;;;;;9.27;8.40;;;18.50;99.90;;;;;;5080436;28;20217;-68
2022/09/05 00:11:55;;;;;;;9.27;8.20;;;18.20;1.00;;;;;;4965339;28;20216;-69
2022/09/05 00:14:40;;;;;;;8.63;7.82;;;18.20;1.00;;;;;;5057899;28;20240;-68
2022/09/05 00:17:30;;;;;;;7.32;6.53;;;18.40;99.90;;;;;;5078411;28;20285;-68
2022/09/05 00:20:32;;;;;;;7.03;6.00;;;18.60;99.90;;;;;;5076824;28;20206;-68
2022/09/05 00:24:01;;;;;;;9.38;7.85;;;18.70;99.90;;;;;;5077819;28;20197;-68
2022/09/05 00:27:02;;;;;;;8.77;7.30;;;18.80;99.90;;;;;;4997887;28;20703;-69
2022/09/05 00:30:01;;;;;;;10.63;7.40;;;18.80;99.90;;;;;;4994533;28;20206;-70
2022/09/05 00:33:13;;;;;;;8.55;7.10;;;18.80;99.90;;;;;;5058922;28;20195;-69
2022/09/05 00:36:10;;;;;;;7.90;7.10;;;18.60;99.90;;;;;;5077808;28;20290;-70
2022/09/05 00:38:41;;;;;;;8.30;7.50;;;18.50;99.90;;;;;;5079804;28;20198;-69
2022/09/05 00:41:11;;;;;;;8.10;6.82;;;18.50;99.90;;;;;;5054029;28;20190;-64
2022/09/05 00:43:42;;;;;;;8.60;7.03;;;18.50;99.90;;;;;;5060078;28;20776;-71
2022/09/05 00:46:25;;;;;;;8.45;7.20;;;18.40;99.90;;;;;;5062130;28;20657;-70
2022/09/05 00:49:18;;;;;;;8.68;6.85;;;18.40;99.90;;;;;;5066388;28;20233;-71
2022/09/05 00:51:53;;;;;;;7.05;6.13;;;18.30;99.90;;;;;;5045768;28;20194;-70
2022/09/05 00:54:23;;;;;;;7.63;6.65;;;18.20;99.90;;;;;;5077496;28;20190;-70
2022/09/05 00:57:43;;;;;;;8.30;7.00;;;18.20;99.90;;;;;;5081441;28;20223;-71
2022/09/05 01:00:18;;;;;;;7.70;6.50;;;18.10;99.90;;;;;;5078467;28;20189;-70
2022/09/05 01:03:08;;;;;;;7.82;7.15;;;18.20;99.90;;;;;;5067194;28;20597;-70
2022/09/05 01:05:38;;;;;;;7.57;6.30;;;18.10;99.90;;;;;;5085755;28;20205;-70
2022/09/05 01:08:43;;;;;;;7.40;6.47;;;18.10;99.90;;;;;;5065395;28;20198;-69
2022/09/05 01:11:18;;;;;;;6.75;6.05;;;18.10;99.90;;;;;;5058793;28;20206;-70
2022/09/05 01:14:00;;;;;;;8.05;6.50;;;18.20;99.90;;;;;;5058713;28;20194;-70
2022/09/05 01:16:51;;;;;;;6.93;5.78;;;18.30;99.90;;;;;;5079239;28;20562;-70
2022/09/05 01:19:29;;;;;;;8.55;6.18;;;18.30;99.90;;;;;;5079798;28;20303;-70
2022/09/05 01:22:15;;;;;;;6.50;5.90;;;18.30;99.90;;;;;;5062572;28;20599;-70
2022/09/05 01:24:51;;;;;;;7.05;5.70;;;18.30;99.90;;;;;;5046590;28;20228;-70
2022/09/05 01:27:30;;;;;;;7.28;5.88;;;18.30;99.90;;;;;;5062630;28;20221;-70
2022/09/05 01:30:20;;;;;;;10.85;6.55;;;18.30;99.90;;;;;;5059802;28;20320;-70
2022/09/05 01:32:59;;;;;;;6.32;5.57;;;18.20;99.90;;;;;;5064549;28;20260;-70
2022/09/05 01:35:55;;;;;;;6.35;5.85;;;18.20;99.90;;;;;;5076211;28;20225;-70
2022/09/05 01:38:35;;;;;;;8.40;5.85;;;18.10;99.90;;;;;;5078877;28;20194;-71
2022/09/05 01:41:09;;;;;;;9.80;5.97;;;18.10;99.90;;;;;;5066807;28;20195;-70
2022/09/05 01:44:04;;;;;;;7.80;6.20;;;18.10;99.90;;;;;;5062596;28;20275;-69
2022/09/05 01:46:34;;;;;;;6.75;5.97;;;17.90;99.90;;;;;;5079280;28;20597;-70
2022/09/05 01:49:07;;;;;;;10.77;6.05;;;18.00;99.90;;;;;;5062817;28;20238;-71
2022/09/05 01:51:56;;;;;;;6.50;5.90;;;17.90;99.90;;;;;;5064337;28;20206;-70
2022/09/05 01:54:37;;;;;;;6.90;6.20;;;17.80;99.90;;;;;;5045442;28;20210;-70
2022/09/05 01:57:23;;;;;;;7.13;6.32;;;17.80;99.90;;;;;;5080326;28;20215;-73
2022/09/05 02:00:12;;;;;;;6.43;5.82;;;17.80;99.90;;;;;;5081768;28;20179;-71
2022/09/05 02:03:10;;;;;;;8.60;6.47;;;17.80;99.90;;;;;;5063562;28;20593;-72
2022/09/05 02:05:50;;;;;;;7.32;5.97;;;17.80;99.90;;;;;;5086477;28;20200;-72
2022/09/05 02:08:42;;;;;;;6.97;6.20;;;17.70;99.90;;;;;;5076468;28;20209;-72
2022/09/05 02:11:11;;;;;;;8.13;6.00;;;17.70;99.90;;;;;;5071482;28;20276;-71
2022/09/05 02:13:56;;;;;;;8.40;6.30;;;17.70;99.90;;;;;;5047902;28;20206;-71
2022/09/05 02:16:43;;;;;;;7.30;6.55;;;17.60;99.90;;;;;;5058738;28;20223;-71
2022/09/05 02:19:13;;;;;;;6.20;5.60;;;17.50;99.90;;;;;;5079662;28;20198;-71
2022/09/05 02:22:02;;;;;;;6.90;6.03;;;17.50;1.00;;;;;;5066205;28;20307;-71
2022/09/05 02:24:36;;;;;;;6.57;5.93;;;17.50;99.90;;;;;;5076414;28;20198;-71
2022/09/05 02:27:15;;;;;;;7.18;6.47;;;17.60;99.90;;;;;;5081779;28;20197;-71
2022/09/05 02:30:23;;;;;;;6.82;6.32;;;17.60;99.90;;;;;;5050999;28;20957;-70
2022/09/05 02:33:11;;;;;;;8.73;6.68;;;17.50;99.90;;;;;;5076272;28;20949;-71
2022/09/05 02:35:47;;;;;;;8.25;6.05;;;17.50;99.90;;;;;;5064061;28;20693;-70
2022/09/05 02:38:43;;;;;;;9.73;6.03;;;17.50;99.90;;;;;;5062901;28;20194;-70
2022/09/05 02:41:49;;;;;;;6.55;5.88;;;17.60;99.90;;;;;;5076907;28;20260;-71
2022/09/05 02:44:56;;;;;;;6.15;5.63;;;17.70;99.90;;;;;;5076167;28;20205;-71
2022/09/05 02:47:58;;;;;;;6.18;5.35;;;17.60;99.90;;;;;;5072393;28;20230;-70
2022/09/05 02:50:32;;;;;;;6.28;5.68;;;17.50;99.90;;;;;;5079333;28;20490;-70
2022/09/05 02:53:21;;;;;;;6.55;5.95;;;17.50;99.90;;;;;;5077153;28;20285;-70
2022/09/05 02:56:34;;;;;;;6.70;6.07;;;17.40;99.90;;;;;;5076794;28;20206;-70
2022/09/05 02:59:47;;;;;;;6.20;5.60;;;17.40;99.90;;;;;;5080373;28;20264;-70
2022/09/05 03:02:34;;;;;;;6.30;5.70;;;17.30;99.90;;;;;;5056771;28;20289;-64
2022/09/05 03:05:07;;;;;;;7.13;5.88;;;17.40;99.90;;;;;;5076663;28;20186;-62
2022/09/05 03:07:54;;;;;;;5.72;5.25;;;17.40;99.90;;;;;;5062302;28;20203;-64
2022/09/05 03:10:43;;;;;;;6.22;5.63;;;17.40;99.90;;;;;;5079235;28;20252;-64
2022/09/05 03:13:41;;;;;;;6.40;5.80;;;17.30;99.90;;;;;;5058332;28;20240;-65
2022/09/05 03:16:28;;;;;;;9.63;6.20;;;17.20;99.90;;;;;;5057423;28;20344;-64
2022/09/05 03:19:18;;;;;;;6.63;5.97;;;17.20;99.90;;;;;;5059271;28;20244;-64
2022/09/05 03:22:06;;;;;;;7.70;6.00;;;17.20;1.00;;;;;;5076390;28;20186;-64
2022/09/05 03:24:51;;;;;;;6.60;6.00;;;17.10;1.00;;;;;;5047414;28;20206;-64
2022/09/05 03:27:25;;;;;;;8.43;6.17;;;17.10;1.00;;;;;;5051962;28;21191;-64
2022/09/05 03:30:04;;;;;;;8.57;6.60;;;17.00;1.00;;;;;;5061007;28;20210;-63
2022/09/05 03:33:02;;;;;;;7.33;6.63;;;16.90;1.00;;;;;;5074776;28;20699;-64
2022/09/05 03:35:51;;;;;;;7.67;6.53;;;16.90;1.00;;;;;;5040897;28;20276;-64
2022/09/05 03:39:01;;;;;;;9.13;6.57;;;17.00;1.00;;;;;;5058356;28;20225;-64
2022/09/05 03:41:49;;;;;;;7.30;6.60;;;17.00;1.00;;;;;;5047584;28;20830;-64
2022/09/05 03:44:38;;;;;;;7.03;6.33;;;17.00;1.00;;;;;;5076319;28;20625;-64
2022/09/05 03:47:08;;;;;;;10.37;6.73;;;17.00;1.00;;;;;;5078419;28;20669;-64
2022/09/05 03:50:00;;;;;;;10.73;8.50;;;17.00;1.00;;;;;;5077104;28;20198;-63
2022/09/05 03:53:17;;;;;;;7.70;7.05;;;17.00;1.00;;;;;;5067801;28;20560;-64
2022/09/05 03:56:29;;;;;;;8.17;7.37;;;17.00;1.00;;;;;;5077708;28;20280;-63
2022/09/05 03:59:28;;;;;;;14.73;8.57;;;16.70;1.00;;;;;;5078061;28;20194;-62
2022/09/05 04:02:04;;;;;;;9.40;8.40;;;16.30;1.00;;;;;;5078193;28;20647;-64
2022/09/05 04:04:54;;;;;;;11.97;7.93;;;16.20;27.50;;;;;;5078985;28;20308;-63
2022/09/05 04:07:52;;;;;;;11.80;8.03;;;16.30;1.00;;;;;;5058304;28;20201;-63
2022/09/05 04:10:55;;;;;;;8.20;7.47;;;16.40;1.00;;;;;;5075180;28;20201;-63
2022/09/05 04:13:43;;;;;;;11.27;9.93;;;16.30;1.00;;;;;;5056973;28;20202;-62
2022/09/05 04:16:18;;;;;;;11.63;8.43;;;16.20;1.00;;;;;;5059593;28;20214;-63
2022/09/05 04:18:53;;;;;;;10.53;9.30;;;16.20;1.00;;;;;;5070614;28;20193;-64
2022/09/05 04:21:31;;;;;;;12.57;7.60;;;16.40;1.00;;;;;;5063163;28;20632;-63
2022/09/05 04:24:32;;;;;;;8.83;7.93;;;16.40;1.00;;;;;;5063667;28;20554;-62
2022/09/05 04:27:13;;;;;;;8.07;7.27;;;16.40;1.00;;;;;;5063207;28;20210;-63
2022/09/05 04:29:59;;;;;;;8.67;7.77;;;16.40;1.00;;;;;;5074228;28;20194;-64
2022/09/05 04:32:49;;;;;;;11.40;7.40;;;16.60;1.00;;;;;;5078105;28;20727;-63
2022/09/05 04:35:48;;;;;;;9.23;6.87;;;16.70;1.00;;;;;;5045398;28;20210;-63
2022/09/05 04:38:17;;;;;;;7.73;7.03;;;16.80;1.00;;;;;;5075739;28;20202;-64
2022/09/05 04:40:57;;;;;;;8.77;7.53;;;16.90;1.00;;;;;;5076772;28;20606;-63
2022/09/05 04:43:36;;;;;;;10.80;7.97;;;17.00;1.00;;;;;;5079967;28;20200;-63
2022/09/05 04:46:22;;;;;;;15.60;13.00;;;17.00;1.00;;;;;;5079022;28;20193;-63
2022/09/05 04:49:04;;;;;;;9.63;7.35;;;17.10;1.00;;;;;;5062171;28;20233;-64
2022/09/05 04:52:05;;;;;;;8.48;6.18;;;17.20;99.90;;;;;;5081025;28;20232;-63
2022/09/05 04:54:58;;;;;;;13.63;12.13;;;17.20;1.00;;;;;;5064322;28;20190;-64
2022/09/05 04:57:42;;;;;;;15.98;12.63;;;17.20;1.00;;;;;;5063698;28;20976;-63
2022/09/05 05:00:20;;;;;;;10.55;9.07;;;17.20;1.00;;;;;;5061548;28;20202;-63
2022/09/05 05:03:17;;;;;;;10.70;9.20;;;17.10;1.00;;;;;;5050351;28;20594;-64
2022/09/05 05:06:54;;;;;;;7.95;6.35;;;17.10;1.00;;;;;;5080426;28;20289;-63
2022/09/05 05:09:38;;;;;;;11.97;7.07;;;17.20;1.00;;;;;;5067679;28;20209;-63
2022/09/05 05:12:34;;;;;;;6.18;5.68;;;17.30;99.90;;;;;;5054952;28;20225;-64
2022/09/05 05:15:26;;;;;;;9.45;6.25;;;17.40;99.90;;;;;;5063530;28;20222;-64
2022/09/05 05:18:19;;;;;;;7.53;6.10;;;17.40;99.90;;;;;;5055369;28;20191;-64
2022/09/05 05:21:20;;;;;;;14.85;11.25;;;17.40;99.90;;;;;;5076584;28;20276;-64
2022/09/05 05:24:10;;;;;;;9.07;6.32;;;17.50;99.90;;;;;;5057711;28;20839;-64
2022/09/05 05:26:48;;;;;;;21.90;15.70;;;17.70;99.90;;;;;;5057823;28;20194;-64
2022/09/05 05:29:42;;;;;;;12.70;10.85;;;17.90;99.90;;;;;;5077895;28;20202;-64
2022/09/05 05:32:18;;;;;;;7.00;6.30;;;18.10;99.90;;;;;;5074815;28;20261;-64
2022/09/05 05:35:15;;;;;;;6.85;5.78;;;18.10;97.00;;;;;;5076436;28;20309;-64
2022/09/05 05:37:47;;;;;;;5.68;5.15;;;18.20;95.90;;;;;;5047281;28;20218;-64
2022/09/05 05:40:14;;;;;;;7.30;5.75;;;18.20;60.40;;;;;;5075595;28;20197;-64
2022/09/05 05:42:43;;;;;;;11.20;9.85;;;18.20;98.90;;;;;;5077329;28;20633;-64
2022/09/05 05:45:32;;;;;;;7.75;5.97;;;18.40;31.30;;;;;;5076198;28;20286;-65
2022/09/05 05:48:23;;;;;;;5.95;5.38;;;18.40;1.00;;;;;;5056258;28;20588;-64
2022/09/05 05:51:11;;;;;;;5.95;5.35;;;18.50;1.00;;;;;;5074239;28;20195;-64
2022/09/05 05:54:19;;;;;;;8.27;5.63;;;18.60;1.00;;;;;;5064960;28;20261;-64
2022/09/05 05:57:04;;;;;;;7.15;5.38;;;19.00;1.00;;;;;;5054175;28;20877;-64
2022/09/05 06:00:27;;;;;;;4.90;4.40;;;21.20;99.90;;;;;;5080667;28;20202;-64
2022/09/05 06:02:54;;;;;;;8.88;4.10;;;22.70;99.90;;;;;;5001039;28;20190;-65
2022/09/05 06:06:14;;;;;;;5.57;4.30;;;22.40;99.90;;;;;;5065391;28;20398;-65
2022/09/05 06:09:13;;;;;;;7.38;4.57;;;23.10;99.90;;;;;;5075491;28;20687;-65
2022/09/05 06:12:25;;;;;;;5.32;3.70;;;24.80;74.30;;;;;;5051555;28;20205;-65
2022/09/05 06:15:27;;;;;;;5.60;3.92;;;27.20;6.60;;;;;;5076589;28;20297;-65
2022/09/05 06:18:16;;;;;;;5.88;4.22;;;28.20;1.00;;;;;;5074688;28;20212;-65
2022/09/05 06:21:10;;;;;;;5.95;4.25;;;27.70;1.00;;;;;;5054357;28;20280;-65
2022/09/05 06:24:34;;;;;;;5.82;4.13;;;27.00;1.00;;;;;;5079809;28;20273;-65
2022/09/05 06:27:22;;;;;;;8.20;4.32;;;27.30;1.00;;;;;;5051720;28;20201;-65
2022/09/05 06:29:56;;;;;;;6.35;3.70;;;28.10;1.00;;;;;;5076729;28;20277;-66
2022/09/05 06:32:33;;;;;;;4.97;3.90;;;28.20;1.00;;;;;;5060410;28;20201;-65
2022/09/05 06:35:35;;;;;;;6.93;3.70;;;27.50;1.00;;;;;;5074463;28;20225;-65
2022/09/05 06:38:21;;;;;;;4.20;3.80;;;28.50;1.00;;;;;;4984185;28;20228;-64
2022/09/05 06:40:55;;;;;;;5.47;3.80;;;28.40;1.00;;;;;;5059371;28;22068;-63
2022/09/05 06:43:49;;;;;;;5.05;4.22;;;28.90;1.00;;;;;;5072155;28;20209;-66
2022/09/05 06:46:36;;;;;;;4.00;3.60;;;29.90;1.00;;;;;;5073874;28;20569;-66
2022/09/05 06:49:45;;;;;;;9.90;3.47;;;30.30;1.00;;;;;;5075533;28;20924;-64
2022/09/05 06:52:24;;;;;;;3.45;2.95;;;31.10;1.00;;;;;;5076005;28;20197;-64
2022/09/05 06:55:17;;;;;;;4.03;3.60;;;30.30;1.00;;;;;;5075729;28;20214;-66
2022/09/05 06:58:21;;;;;;;3.38;3.10;;;30.50;1.00;;;;;;5075498;28;20863;-65
2022/09/05 07:00:54;;;;;;;3.95;3.10;;;31.40;1.00;;;;;;5080898;28;20256;-66
2022/09/05 07:03:40;;;;;;;6.75;3.42;;;31.40;1.00;;;;;;5078683;28;20634;-65
2022/09/05 07:06:14;;;;;;;5.53;2.95;;;30.80;1.00;;;;;;5056208;28;20907;-65
2022/09/05 07:16:41;;;;;;;3.00;2.70;;;32.20;1.00;;;;;;5067394;28;20228;-66
2022/09/05 07:19:34;;;;;;;5.25;2.67;;;33.40;1.00;;;;;;5072994;28;20201;-66
2022/09/05 07:22:14;;;;;;;4.40;2.70;;;32.30;1.00;;;;;;5075878;28;20194;-65
2022/09/05 07:25:05;;;;;;;5.15;3.20;;;32.90;1.00;;;;;;5054675;28;20194;-66
2022/09/05 07:27:46;;;;;;;4.88;3.00;;;32.20;1.00;;;;;;5053101;28;20202;-66
2022/09/05 07:30:37;;;;;;;4.63;2.88;;;32.40;1.00;;;;;;5076297;28;20226;-66
2022/09/05 07:33:04;;;;;;;5.97;2.90;;;33.70;1.00;;;;;;5053915;28;20191;-66
2022/09/05 07:35:34;;;;;;;2.85;2.50;;;34.10;1.00;;;;;;5075711;28;20221;-66
2022/09/05 07:38:16;;;;;;;3.55;2.20;;;34.50;1.00;;;;;;5056357;28;20219;-64
2022/09/05 07:40:59;;;;;;;6.07;2.55;;;35.00;1.00;;;;;;5076740;28;20926;-66
2022/09/05 07:43:29;;;;;;;4.70;2.80;;;35.80;1.00;;;;;;5062199;28;20194;-66
2022/09/05 07:46:16;;;;;;;5.13;2.40;;;35.70;1.00;;;;;;5080638;28;20194;-66
2022/09/05 07:48:49;;;;;;;3.97;2.40;;;34.10;1.00;;;;;;5081794;28;20234;-66
2022/09/05 07:51:23;;;;;;;3.35;2.45;;;35.00;1.00;;;;;;5043320;28;20202;-66
2022/09/05 07:54:22;;;;;;;6.18;2.45;;;35.70;1.00;;;;;;5071345;28;20198;-66
2022/09/05 07:57:15;;;;;;;6.35;2.50;;;34.80;1.00;;;;;;5075073;28;20352;-66
2022/09/05 08:00:03;;;;;;;5.35;2.28;;;35.20;1.00;;;;;;5043802;28;20209;-66
2022/09/05 08:02:45;;;;;;;6.25;2.58;;;36.30;1.00;;;;;;5076564;28;20198;-66
2022/09/05 08:05:21;;;;;;;3.65;2.30;;;33.10;1.00;;;;;;5075494;28;20185;-66
2022/09/05 08:08:03;;;;;;;2.47;2.28;;;34.80;1.00;;;;;;5077865;28;20222;-66
2022/09/05 08:10:36;;;;;;;8.35;2.70;;;36.30;1.00;;;;;;5070731;28;20611;-66
2022/09/05 08:13:48;;;;;;;3.08;2.42;;;37.30;1.00;;;;;;5074217;28;20744;-66
2022/09/05 08:16:18;;;;;;;5.43;2.03;;;38.80;1.00;;;;;;5075841;28;20226;-66
2022/09/05 08:19:24;;;;;;;3.05;2.08;;;35.80;1.00;;;;;;5075071;28;20182;-66
2022/09/05 08:21:54;;;;;;;2.00;1.80;;;34.20;1.00;;;;;;5080687;28;20190;-66
2022/09/05 08:24:26;;;;;;;4.38;2.40;;;36.60;1.00;;;;;;5060860;28;20199;-68
2022/09/05 08:27:17;;;;;;;5.38;2.30;;;36.10;1.00;;;;;;5058404;28;20202;-66
2022/09/05 08:30:00;;;;;;;3.53;2.00;;;35.30;1.00;;;;;;5057484;28;20285;-66
2022/09/05 08:33:12;;;;;;;2.22;2.00;;;36.10;1.00;;;;;;5076606;28;20288;-66
2022/09/05 08:36:01;;;;;;;4.63;2.13;;;36.20;1.00;;;;;;5078269;28;20247;-66
2022/09/05 08:38:33;;;;;;;5.15;1.80;;;34.70;1.00;;;;;;5065230;28;20229;-67
2022/09/05 08:41:34;;;;;;;6.43;2.22;;;34.70;1.00;;;;;;5045784;28;20201;-67
2022/09/05 08:44:47;;;;;;;9.73;1.85;;;38.10;1.00;;;;;;5071675;28;20190;-67
2022/09/05 08:48:12;;;;;;;3.85;1.77;;;38.70;1.00;;;;;;5049711;28;20244;-67
2022/09/05 08:50:52;;;;;;;8.23;1.83;;;42.20;1.00;;;;;;5052537;28;20687;-66
2022/09/05 08:53:46;;;;;;;3.38;1.80;;;40.40;1.00;;;;;;5058611;28;20199;-67
2022/09/05 08:56:22;;;;;;;4.88;1.80;;;37.80;1.00;;;;;;5046717;28;20297;-66
2022/09/05 08:59:07;;;;;;;4.13;1.73;;;37.30;1.00;;;;;;5060029;28;20313;-66
2022/09/05 09:02:13;;;;;;;4.00;2.03;;;38.50;1.00;;;;;;5050255;28;20194;-64
2022/09/05 09:05:45;;;;;;;1.88;1.40;;;39.10;1.00;;;;;;5043073;28;20189;-66
2022/09/05 09:08:51;;;;;;;4.07;1.52;;;41.40;1.00;;;;;;5066245;28;20194;-66
2022/09/05 09:11:27;;;;;;;2.03;1.45;;;38.70;1.00;;;;;;5050359;28;20205;-66
2022/09/05 09:13:56;;;;;;;1.98;1.42;;;41.70;1.00;;;;;;5047620;28;20205;-66
2022/09/05 09:16:35;;;;;;;2.58;1.63;;;39.50;1.00;;;;;;5065346;28;20618;-66
2022/09/05 09:19:05;;;;;;;1.92;1.40;;;39.10;1.00;;;;;;5032974;28;20220;-66
2022/09/05 09:21:55;;;;;;;2.78;1.95;;;40.00;1.00;;;;;;5035090;28;20275;-65
2022/09/05 09:24:59;;;;;;;5.50;1.55;;;38.00;1.00;;;;;;5045177;28;20201;-66
2022/09/05 09:28:25;;;;;;;2.78;1.77;;;39.60;1.00;;;;;;5024095;28;20674;-65
2022/09/05 09:31:21;;;;;;;2.00;1.77;;;38.40;1.00;;;;;;5046713;28;20202;-66
2022/09/05 09:34:26;;;;;;;3.28;1.67;;;39.40;1.00;;;;;;5067379;28;20286;-66
2022/09/05 09:37:07;;;;;;;2.20;1.55;;;43.10;1.00;;;;;;5039915;28;20291;-67
2022/09/05 09:39:52;;;;;;;2.00;1.75;;;43.70;1.00;;;;;;5048018;28;20294;-66
2022/09/05 09:42:39;;;;;;;2.17;1.80;;;40.80;1.00;;;;;;5052234;28;20239;-66
2022/09/05 09:45:27;;;;;;;2.53;1.50;;;38.80;1.00;;;;;;5066093;28;20854;-66
2022/09/05 09:48:28;;;;;;;3.60;1.60;;;40.80;1.00;;;;;;5064036;28;20234;-67
2022/09/05 09:51:35;;;;;;;2.92;1.80;;;44.00;1.00;;;;;;5047107;28;20282;-66
2022/09/05 09:54:21;;;;;;;2.92;1.42;;;43.00;1.00;;;;;;5045035;28;20198;-67
2022/09/05 09:57:15;;;;;;;3.45;1.40;;;43.50;1.00;;;;;;5049433;28;20323;-67
2022/09/05 10:00:08;;;;;;;3.50;1.52;;;39.40;1.00;;;;;;5068117;28;20196;-67
2022/09/05 10:02:48;;;;;;;2.22;1.60;;;39.40;1.00;;;;;;5037362;28;20206;-66
2022/09/05 10:05:56;;;;;;;2.42;1.83;;;36.90;1.00;;;;;;5054884;28;20202;-66
2022/09/05 10:09:17;;;;;;;2.47;1.80;;;40.10;1.00;;;;;;5055866;28;20214;-67
2022/09/05 10:12:42;;;;;;;3.95;1.67;;;39.90;1.00;;;;;;5068746;28;20232;-66
2022/09/05 10:15:17;;;;;;;4.78;1.75;;;41.00;1.00;;;;;;5051167;28;20221;-67
2022/09/05 10:18:33;;;;;;;4.82;1.63;;;41.70;1.00;;;;;;5050830;28;20237;-68
2022/09/05 10:21:08;;;;;;;1.95;1.50;;;43.50;1.00;;;;;;5031552;28;21305;-67
2022/09/05 10:24:32;;;;;;;1.70;1.60;;;41.50;1.00;;;;;;5049461;28;20247;-67
2022/09/05 10:27:24;;;;;;;4.13;1.60;;;41.30;1.00;;;;;;5058634;28;20194;-65
2022/09/05 10:30:10;;;;;;;2.85;1.80;;;39.60;1.00;;;;;;5055539;28;20194;-66
2022/09/05 10:33:02;;;;;;;3.88;1.60;;;39.30;1.00;;;;;;5062568;28;20210;-65
2022/09/05 10:35:52;;;;;;;2.55;1.55;;;35.20;1.00;;;;;;5067494;28;20212;-64
2022/09/05 10:38:42;;;;;;;2.55;1.60;;;38.20;1.00;;;;;;5044715;28;20300;-64
2022/09/05 10:41:13;;;;;;;1.92;1.20;;;37.90;1.00;;;;;;5038832;28;20712;-65
2022/09/05 10:44:01;;;;;;;4.40;1.50;;;37.80;1.00;;;;;;5066289;28;20182;-65
2022/09/05 10:46:54;;;;;;;1.90;1.60;;;39.80;1.00;;;;;;5047394;28;20194;-65
2022/09/05 10:49:29;;;;;;;3.85;1.50;;;37.50;1.00;;;;;;5068759;28;20272;-65
2022/09/05 10:52:21;;;;;;;5.10;2.08;;;35.30;1.00;;;;;;5053035;28;20236;-65
2022/09/05 10:55:12;;;;;;;5.32;1.60;;;33.30;1.00;;;;;;5065961;28;21050;-65
2022/09/05 10:58:01;;;;;;;2.55;1.40;;;35.90;1.00;;;;;;5064205;28;20222;-65
2022/09/05 11:00:39;;;;;;;4.05;1.60;;;34.50;1.00;;;;;;5064096;28;20231;-65
2022/09/05 11:03:51;;;;;;;2.30;1.70;;;31.50;1.00;;;;;;5053530;28;20277;-65
2022/09/05 11:06:36;;;;;;;4.75;1.50;;;33.20;1.00;;;;;;5079376;28;20201;-65
2022/09/05 11:09:21;;;;;;;3.13;1.48;;;34.80;1.00;;;;;;5060435;28;20236;-64
2022/09/05 11:12:10;;;;;;;4.22;1.45;;;35.00;1.00;;;;;;5076731;28;20237;-65
2022/09/05 11:14:48;;;;;;;1.73;1.40;;;34.90;1.00;;;;;;5059811;28;20248;-65
2022/09/05 11:17:17;;;;;;;1.60;1.50;;;35.60;1.00;;;;;;5080684;28;20749;-66
2022/09/05 11:20:12;;;;;;;2.33;1.40;;;37.60;1.00;;;;;;5077387;28;20216;-65
2022/09/05 11:23:09;;;;;;;3.10;1.38;;;39.40;1.00;;;;;;5022354;28;20557;-66
2022/09/05 11:25:38;;;;;;;4.82;1.50;;;41.20;1.00;;;;;;5070113;28;20202;-66
2022/09/05 11:28:24;;;;;;;5.30;1.38;;;42.50;1.00;;;;;;5057769;28;20205;-66
2022/09/05 11:30:55;;;;;;;1.88;1.40;;;41.90;1.00;;;;;;5070884;28;20190;-65
2022/09/05 11:33:45;;;;;;;2.83;1.40;;;38.20;1.00;;;;;;5073467;28;20198;-64
2022/09/05 11:36:50;;;;;;;4.22;1.30;;;35.00;1.00;;;;;;5060819;28;20818;-65
2022/09/05 11:40:01;;;;;;;4.20;1.42;;;34.70;1.00;;;;;;5070190;28;20197;-65
2022/09/05 11:42:54;;;;;;;2.40;1.40;;;34.10;1.00;;;;;;5060335;28;20194;-66
2022/09/05 11:45:33;;;;;;;2.00;1.38;;;34.20;1.00;;;;;;5054973;28;20278;-64
2022/09/05 11:48:05;;;;;;;1.80;1.52;;;34.30;1.00;;;;;;5038368;28;20315;-65
2022/09/05 11:50:42;;;;;;;1.50;1.30;;;35.20;1.00;;;;;;5051074;28;20195;-67
2022/09/05 11:53:37;;;;;;;2.17;1.30;;;37.00;1.00;;;;;;5057098;28;20661;-65
2022/09/05 11:56:29;;;;;;;2.33;1.40;;;39.10;1.00;;;;;;5057632;28;20198;-66
2022/09/05 11:59:11;;;;;;;1.63;1.13;;;40.70;1.00;;;;;;5039219;28;20214;-65
2022/09/05 12:02:17;;;;;;;2.90;1.35;;;41.30;1.00;;;;;;5055907;28;20244;-65
2022/09/05 12:05:35;;;;;;;1.40;1.30;;;40.30;1.00;;;;;;5036086;28;20268;-65
2022/09/05 12:08:41;;;;;;;1.70;1.33;;;41.00;1.00;;;;;;5039472;28;21345;-65
2022/09/05 12:11:24;;;;;;;2.03;1.40;;;40.20;1.00;;;;;;5060680;28;20190;-65
2022/09/05 12:14:31;;;;;;;1.52;1.20;;;39.30;1.00;;;;;;5054574;28;20259;-65
2022/09/05 12:17:27;;;;;;;1.80;1.15;;;38.80;1.00;;;;;;5061480;28;20249;-66
2022/09/05 12:20:11;;;;;;;2.28;1.20;;;35.90;1.00;;;;;;5047588;28;20257;-65
2022/09/05 12:22:59;;;;;;;1.45;1.30;;;35.30;1.00;;;;;;5046546;28;20277;-65
2022/09/05 12:25:49;;;;;;;3.78;1.40;;;34.60;1.00;;;;;;5030968;28;20198;-65
2022/09/05 12:28:44;;;;;;;1.50;1.30;;;35.00;1.00;;;;;;5063305;28;20661;-65
2022/09/05 12:31:52;;;;;;;2.75;1.23;;;34.30;1.00;;;;;;5063081;28;20282;-65
2022/09/05 12:34:51;;;;;;;1.65;1.30;;;34.50;1.00;;;;;;5058440;28;20543;-66
2022/09/05 12:37:44;;;;;;;1.38;1.00;;;35.30;1.00;;;;;;5058299;28;20278;-66
2022/09/05 12:40:36;;;;;;;1.52;1.10;;;36.30;1.00;;;;;;5063928;28;20399;-63
2022/09/05 12:43:26;;;;;;;3.60;1.33;;;34.30;1.00;;;;;;5060639;28;20249;-64
2022/09/05 12:46:25;;;;;;;1.30;1.05;;;32.50;1.00;;;;;;5059648;28;20828;-64
2022/09/05 12:49:00;;;;;;;2.03;1.20;;;32.70;1.00;;;;;;5058597;28;20274;-65
2022/09/05 12:51:39;;;;;;;1.42;1.25;;;32.80;1.00;;;;;;5069213;28;20933;-64
2022/09/05 12:54:26;;;;;;;3.10;1.10;;;32.00;1.00;;;;;;5043868;28;20198;-64
2022/09/05 12:57:26;;;;;;;3.20;1.25;;;31.50;1.00;;;;;;5079308;28;20195;-63
2022/09/05 13:00:20;;;;;;;3.35;1.40;;;32.10;1.00;;;;;;5078559;28;20187;-64
2022/09/05 13:03:17;;;;;;;1.48;1.17;;;31.40;1.00;;;;;;5076876;28;20194;-64
2022/09/05 13:06:13;;;;;;;2.40;1.52;;;31.10;1.00;;;;;;5072667;28;20381;-64
2022/09/05 13:09:00;;;;;;;2.92;1.38;;;31.30;1.00;;;;;;5053998;28;20690;-64
2022/09/05 13:11:30;;;;;;;1.80;1.45;;;31.50;1.00;;;;;;5072974;28;20210;-63
2022/09/05 13:14:23;;;;;;;1.70;1.50;;;31.90;1.00;;;;;;5073575;28;20337;-65
2022/09/05 13:17:12;;;;;;;5.63;1.63;;;32.20;1.00;;;;;;5075632;28;20278;-64
2022/09/05 13:19:49;;;;;;;1.17;0.98;;;31.70;1.00;;;;;;5072663;28;20595;-65
2022/09/05 13:22:22;;;;;;;2.42;1.30;;;31.80;1.00;;;;;;5042126;28;20277;-65
2022/09/05 13:25:02;;;;;;;1.45;1.35;;;31.90;1.00;;;;;;5055116;28;20237;-65
2022/09/05 13:27:38;;;;;;;2.50;1.88;;;32.50;1.00;;;;;;5074351;28;20197;-65
2022/09/05 13:30:10;;;;;;;1.35;1.23;;;32.50;1.00;;;;;;5072673;28;20260;-64
2022/09/05 13:33:02;;;;;;;1.75;1.45;;;32.20;1.00;;;;;;5062231;28;20277;-65
2022/09/05 13:36:04;;;;;;;3.15;1.48;;;32.30;1.00;;;;;;5078540;28;20756;-63
2022/09/05 13:39:08;;;;;;;2.80;1.40;;;32.40;1.00;;;;;;5061002;28;20305;-65
2022/09/05 13:41:48;;;;;;;3.72;1.50;;;32.10;1.00;;;;;;5054838;28;20268;-64
2022/09/05 13:44:20;;;;;;;1.50;1.40;;;32.50;1.00;;;;;;5074132;28;20244;-67
2022/09/05 13:47:25;;;;;;;2.20;1.58;;;32.50;1.00;;;;;;5069957;28;20269;-63
2022/09/05 13:50:16;;;;;;;2.08;1.35;;;32.30;1.00;;;;;;5075088;28;20198;-63
2022/09/05 13:52:50;;;;;;;3.22;1.85;;;32.30;1.00;;;;;;5075835;28;20195;-63
2022/09/05 13:55:33;;;;;;;2.58;1.55;;;31.40;1.00;;;;;;5061101;28;20276;-63
2022/09/05 13:58:10;;;;;;;3.97;1.40;;;31.40;1.00;;;;;;5077110;28;20245;-63
2022/09/05 14:00:39;;;;;;;1.52;1.40;;;31.50;1.00;;;;;;5068549;28;20218;-63
2022/09/05 14:03:16;;;;;;;1.40;1.25;;;31.80;1.00;;;;;;5058130;28;20202;-63
2022/09/05 14:06:27;;;;;;;1.30;1.20;;;32.10;1.00;;;;;;5065707;28;20222;-64
2022/09/05 14:09:21;;;;;;;4.10;1.45;;;31.50;1.00;;;;;;5082006;28;20252;-63
2022/09/05 14:12:35;;;;;;;1.75;1.50;;;31.20;1.00;;;;;;5077703;28;20194;-64
2022/09/05 14:15:18;;;;;;;3.20;1.40;;;31.10;1.00;;;;;;5073889;28;20703;-63
2022/09/05 14:17:59;;;;;;;1.65;1.13;;;31.20;1.00;;;;;;5076683;28;20199;-63
2022/09/05 14:23:47;;;;;;;1.55;1.30;;;30.70;1.00;;;;;;5059319;28;20218;-65
2022/09/05 14:26:29;;;;;;;5.90;1.70;;;30.50;1.00;;;;;;5074470;28;20226;-65
2022/09/05 14:29:15;;;;;;;2.88;1.30;;;30.80;1.00;;;;;;5063842;28;20255;-65
2022/09/05 14:31:49;;;;;;;1.85;1.50;;;30.80;1.00;;;;;;5077015;28;20194;-63
2022/09/05 14:34:46;;;;;;;1.75;1.20;;;30.70;1.00;;;;;;5063575;28;20202;-64
2022/09/05 14:37:51;;;;;;;1.30;1.20;;;30.70;1.00;;;;;;5077627;28;20289;-64
2022/09/05 14:41:00;;;;;;;1.55;1.25;;;31.00;1.00;;;;;;5076474;28;20297;-64
2022/09/05 14:43:43;;;;;;;3.38;1.23;;;31.10;1.00;;;;;;5057019;28;20260;-64
2022/09/05 14:46:44;;;;;;;1.58;1.30;;;31.30;1.00;;;;;;5064822;28;20198;-65
2022/09/05 14:49:35;;;;;;;1.23;1.00;;;31.30;1.00;;;;;;5075434;28;20230;-64
2022/09/05 14:52:33;;;;;;;1.50;1.35;;;31.40;1.00;;;;;;5074026;28;20182;-64
2022/09/05 14:55:15;;;;;;;1.55;1.45;;;31.60;1.00;;;;;;5059950;28;20284;-64
2022/09/05 14:57:47;;;;;;;1.80;1.33;;;31.70;1.00;;;;;;5064301;28;20193;-64
2022/09/05 15:00:57;;;;;;;2.63;1.60;;;31.70;1.00;;;;;;5060456;28;20748;-63